Time;durP1;ratioP1;P1;durP2;ratioP2;P2;SDS_P1;SDS_P2;PMS_P1;PMS_P2;Temp;Humidity;BMP_temperature;BMP_pressure;BME280_temperature;BME280_humidity;BME280_pressure;Samples;Min_cycle;Max_cycle;Signal;HPM_P1;HPM_P2
2022/09/18 00:01:25;;;;;;;;;;;;;;;12.76;61.00;101619.50;5120638;28;20410;-48
2022/09/18 00:03:59;;;;;;;;;;;;;;;12.77;60.96;101610.56;5112045;28;19958;-48
2022/09/18 00:06:37;;;;;;;12.82;2.05;;;;;;;12.78;60.92;101622.00;5115351;28;19922;-50
2022/09/18 00:09:13;;;;;;;15.50;3.85;;;;;;;12.77;60.77;101621.16;5115901;28;20054;-50
2022/09/18 00:11:49;;;;;;;21.20;2.53;;;;;;;12.73;60.79;101611.84;5112900;28;21479;-49
2022/09/18 00:14:23;;;;;;;16.02;3.38;;;;;;;12.77;60.90;101615.84;5116678;28;20050;-45
2022/09/18 00:16:56;;;;;;;11.88;2.67;;;;;;;12.73;60.99;101603.03;5117293;28;20043;-42
2022/09/18 00:19:30;;;;;;;10.57;2.42;;;;;;;12.78;60.79;101600.78;5096377;28;20050;-46
2022/09/18 00:22:03;;;;;;;18.40;2.55;;;;;;;12.80;61.14;101604.13;5118342;28;20398;-47
2022/09/18 00:24:36;;;;;;;11.93;3.53;;;;;;;12.74;60.73;101597.59;5104290;28;20498;-49
2022/09/18 00:27:10;;;;;;;;;;;;;;;12.79;60.88;101600.66;5109676;28;20524;-46
2022/09/18 00:29:43;;;;;;;17.10;2.20;;;;;;;12.80;60.96;101599.66;5120991;28;19928;-44
2022/09/18 00:32:16;;;;;;;11.90;2.80;;;;;;;12.73;60.96;101587.97;5106829;28;21489;-49
2022/09/18 00:34:50;;;;;;;11.85;2.58;;;;;;;12.76;60.99;101593.00;5090283;28;20060;-48
2022/09/18 00:37:23;;;;;;;15.43;3.20;;;;;;;12.80;60.98;101597.00;5109191;28;20367;-46
2022/09/18 00:39:57;;;;;;;11.68;2.10;;;;;;;12.82;60.98;101599.50;5105983;28;20571;-41
2022/09/18 00:42:31;;;;;;;14.10;3.40;;;;;;;12.83;60.96;101609.97;5101824;28;20415;-52
2022/09/18 00:45:05;;;;;;;14.27;4.18;;;;;;;12.83;60.95;101615.28;5106624;28;20046;-46
2022/09/18 00:47:42;;;;;;;18.50;3.63;;;;;;;12.76;61.24;101602.75;5102136;28;20047;-46
2022/09/18 00:50:20;;;;;;;14.70;2.15;;;;;;;12.79;61.17;101619.22;5094116;28;20463;-49
2022/09/18 00:52:57;;;;;;;9.65;2.80;;;;;;;12.79;61.32;101628.94;5095717;28;20077;-52
2022/09/18 00:55:37;;;;;;;11.10;2.03;;;;;;;12.72;61.20;101614.63;5085989;28;20093;-49
2022/09/18 01:02:04;;;;;;;19.73;3.88;;;;;;;12.66;61.38;101616.84;5103908;28;20478;-51
2022/09/18 01:04:37;;;;;;;16.48;2.70;;;;;;;12.67;61.17;101615.91;5110338;28;20119;-47
2022/09/18 01:07:20;;;;;;;14.13;2.33;;;;;;;12.65;61.15;101611.72;5103951;28;20054;-48
2022/09/18 01:10:04;;;;;;;14.40;2.60;;;;;;;12.72;61.24;101618.09;5095655;28;20799;-49
2022/09/18 01:12:47;;;;;;;14.40;2.55;;;;;;;12.63;61.00;101613.66;5088282;28;20374;-49
2022/09/18 01:15:30;;;;;;;11.00;2.50;;;;;;;12.69;61.06;101631.63;5080317;28;20375;-50
2022/09/18 01:18:17;;;;;;;22.02;3.63;;;;;;;12.68;61.68;101643.22;5082843;28;20061;-48
2022/09/18 01:21:08;;;;;;;7.57;1.85;;;;;;;12.69;61.51;101644.88;5095557;28;20367;-51
2022/09/18 01:24:29;;;;;;;14.40;2.40;;;;;;;12.65;61.50;101643.50;5088724;28;20503;-47
2022/09/18 01:27:06;;;;;;;17.30;2.63;;;;;;;12.51;61.61;101623.63;5098963;28;20057;-50
2022/09/18 01:29:52;;;;;;;9.40;2.40;;;;;;;12.53;61.60;101624.28;5101134;28;20790;-46
2022/09/18 01:32:30;;;;;;;12.25;2.33;;;;;;;12.48;61.69;101607.16;5101438;28;20042;-48
2022/09/18 01:35:13;;;;;;;7.28;2.00;;;;;;;12.51;61.68;101615.69;5096706;28;20046;-47
2022/09/18 01:37:53;;;;;;;8.15;2.53;;;;;;;12.51;61.66;101604.22;5081795;28;21385;-47
2022/09/18 01:40:31;;;;;;;15.00;2.60;;;;;;;12.58;61.60;101610.63;5086568;28;20062;-45
2022/09/18 01:43:09;;;;;;;13.27;3.30;;;;;;;12.58;61.66;101603.50;5082776;28;20120;-51
2022/09/18 01:45:47;;;;;;;11.93;1.80;;;;;;;12.60;61.59;101606.00;5075004;28;20524;-48
2022/09/18 01:48:28;;;;;;;15.13;2.97;;;;;;;12.53;61.73;101602.25;5076664;28;20495;-48
2022/09/18 01:51:07;;;;;;;14.23;2.38;;;;;;;12.60;61.73;101620.09;5070366;28;20043;-48
2022/09/18 01:53:44;;;;;;;7.05;2.15;;;;;;;12.51;61.74;101588.31;5077752;28;20470;-47
2022/09/18 01:56:22;;;;;;;18.55;3.03;;;;;;;12.57;61.74;101598.34;5081925;28;20062;-48
2022/09/18 01:59:00;;;;;;;12.98;2.72;;;;;;;12.54;61.89;101593.31;5058311;28;20047;-49
2022/09/18 02:01:38;;;;;;;9.27;2.58;;;;;;;12.52;61.77;101592.66;5068834;28;20039;-47
2022/09/18 02:04:15;;;;;;;25.05;2.33;;;;;;;12.40;61.79;101571.63;5077872;28;20258;-46
2022/09/18 02:06:57;;;;;;;17.23;4.32;;;;;;;12.49;61.85;101577.88;5080670;28;20047;-51
2022/09/18 02:09:30;;;;;;;19.50;2.92;;;;;;;12.49;61.93;101566.44;5081370;28;20131;-47
2022/09/18 02:12:07;;;;;;;17.83;2.70;;;;;;;12.52;61.92;101574.13;5085922;28;20069;-49
2022/09/18 02:14:44;;;;;;;13.68;3.28;;;;;;;12.51;61.81;101573.28;5081980;28;20046;-46
2022/09/18 02:17:23;;;;;;;11.55;1.85;;;;;;;12.44;61.87;101562.41;5085017;28;20492;-48
2022/09/18 02:20:02;;;;;;;10.00;2.65;;;;;;;12.43;61.83;101560.75;5084824;28;20042;-50
2022/09/18 02:22:36;;;;;;;9.98;1.60;;;;;;;12.48;61.88;101562.97;5086384;28;20058;-47
2022/09/18 02:25:13;;;;;;;11.93;2.35;;;;;;;12.42;62.04;101551.13;5085979;28;20372;-46
2022/09/18 02:27:46;;;;;;;9.00;1.85;;;;;;;12.49;62.02;101571.75;5078503;28;22680;-51
2022/09/18 02:30:22;;;;;;;17.63;4.78;;;;;;;12.48;62.11;101570.06;5086302;28;20407;-49
2022/09/18 02:32:57;;;;;;;10.80;2.40;;;;;;;12.45;62.17;101574.69;5083496;28;20763;-46
2022/09/18 02:35:44;;;;;;;7.85;2.15;;;;;;;12.44;62.06;101567.69;5082483;28;20476;-50
2022/09/18 02:38:27;;;;;;;13.50;2.60;;;;;;;12.44;62.16;101578.28;5109644;28;20518;-48
2022/09/18 02:41:07;;;;;;;8.35;2.00;;;;;;;12.41;62.13;101567.16;5099006;28;20046;-48
2022/09/18 02:43:51;;;;;;;7.60;2.17;;;;;;;12.37;62.15;101566.59;5106538;28;20400;-46
2022/09/18 02:46:33;;;;;;;8.50;1.60;;;;;;;12.38;62.11;101562.97;5097117;28;20383;-49
2022/09/18 02:49:15;;;;;;;6.20;1.80;;;;;;;12.38;62.12;101576.22;5098480;28;20279;-47
2022/09/18 02:51:55;;;;;;;13.45;2.80;;;;;;;12.34;62.06;101566.91;5102394;28;20133;-49
2022/09/18 02:54:37;;;;;;;7.88;3.08;;;;;;;12.36;62.16;101570.25;5106737;28;20129;-48
2022/09/18 02:57:14;;;;;;;10.02;2.33;;;;;;;12.33;62.06;101573.19;5108860;28;20510;-46
2022/09/18 02:59:50;;;;;;;11.05;2.50;;;;;;;12.36;62.11;101572.06;5105543;28;25124;-43
2022/09/18 03:02:25;;;;;;;13.55;3.05;;;;;;;12.33;62.25;101559.94;5102478;28;20092;-48
2022/09/18 03:04:59;;;;;;;8.20;2.25;;;;;;;12.24;62.22;101542.25;5103680;28;20046;-46
2022/09/18 03:07:32;;;;;;;19.08;2.10;;;;;;;12.30;62.19;101546.97;5107240;28;20133;-49
2022/09/18 03:10:05;;;;;;;;;;;;;;;12.38;62.05;101547.09;5102102;28;20438;-50
2022/09/18 03:12:38;;;;;;;9.82;1.83;;;;;;;12.38;62.00;101544.44;5104497;28;19968;-48
2022/09/18 03:15:12;;;;;;;13.40;2.60;;;;;;;12.40;62.04;101541.66;5101756;28;20050;-48
2022/09/18 03:17:45;;;;;;;6.18;2.20;;;;;;;12.36;62.21;101538.47;5105783;28;20154;-47
2022/09/18 03:20:19;;;;;;;9.23;1.92;;;;;;;12.45;62.08;101542.91;5106638;28;20054;-46
2022/09/18 03:22:51;;;;;;;12.32;2.83;;;;;;;12.49;61.97;101539.97;5111498;28;20137;-48
2022/09/18 03:25:24;;;;;;;9.68;2.63;;;;;;;12.44;61.99;101535.06;5110335;28;20047;-47
2022/09/18 03:27:57;;;;;;;14.20;2.50;;;;;;;12.47;62.26;101550.69;5104283;28;20448;-47
2022/09/18 03:30:29;;;;;;;19.52;3.42;;;;;;;12.41;62.54;101573.28;5104164;28;20046;-45
2022/09/18 03:33:02;;;;;;;10.90;2.88;;;;;;;12.39;63.16;101575.25;5108870;28;20399;-46
2022/09/18 03:35:37;;;;;;;14.52;3.55;;;;;;;12.31;62.85;101561.06;5111524;28;20043;-46
2022/09/18 03:38:10;;;;;;;8.80;2.65;;;;;;;12.34;62.77;101564.25;5103561;28;20054;-46
2022/09/18 03:40:45;;;;;;;11.45;2.10;;;;;;;12.32;62.57;101557.41;5097587;28;20136;-47
2022/09/18 03:43:17;;;;;;;10.25;2.40;;;;;;;12.31;62.38;101553.94;5106745;28;20130;-46
2022/09/18 03:45:50;;;;;;;9.90;3.25;;;;;;;12.35;62.46;101552.66;5107358;28;20046;-46
2022/09/18 03:48:23;;;;;;;12.85;3.70;;;;;;;12.30;62.42;101546.97;5106950;28;20050;-47
2022/09/18 03:50:58;;;;;;;9.77;2.40;;;;;;;12.41;62.41;101554.75;5106370;28;20049;-48
2022/09/18 03:53:30;;;;;;;11.98;2.13;;;;;;;12.38;62.41;101543.59;5099939;28;20061;-50
2022/09/18 03:56:03;;;;;;;15.10;2.50;;;;;;;12.40;62.24;101553.09;5104268;28;20049;-48
2022/09/18 03:58:36;;;;;;;;;;;;;;;12.46;62.35;101549.03;5112636;28;20396;-44
2022/09/18 04:01:09;;;;;;;10.43;2.28;;;;;;;12.38;62.25;101536.47;5108580;28;19930;-46
2022/09/18 04:03:42;;;;;;;11.32;2.17;;;;;;;12.44;62.43;101546.50;5106477;28;20051;-48
2022/09/18 04:06:16;;;;;;;;;;;;;;;12.45;62.36;101542.91;5106765;28;20042;-48
2022/09/18 04:08:49;;;;;;;14.27;3.67;;;;;;;12.43;62.25;101534.25;5104248;28;19929;-47
2022/09/18 04:11:22;;;;;;;10.20;2.10;;;;;;;12.45;62.24;101540.25;5106199;28;20364;-48
2022/09/18 04:13:55;;;;;;;13.27;2.42;;;;;;;12.38;62.29;101536.47;5105513;28;20086;-46
2022/09/18 04:16:28;;;;;;;14.35;3.13;;;;;;;12.48;62.40;101546.22;5100087;28;20446;-48
2022/09/18 04:19:01;;;;;;;;;;;;;;;12.48;62.20;101541.78;5098897;28;20301;-46
2022/09/18 04:21:35;;;;;;;16.42;3.53;;;;;;;12.43;62.26;101539.53;5098301;28;20004;-46
2022/09/18 04:24:08;;;;;;;11.45;2.58;;;;;;;12.37;62.08;101534.00;5100328;28;20486;-47
2022/09/18 04:26:40;;;;;;;14.65;1.98;;;;;;;12.42;62.37;101543.19;5113812;28;20557;-45
2022/09/18 04:30:21;;;;;;;8.48;2.00;;;;;;;12.43;62.32;101538.72;5120090;28;20058;-44
2022/09/18 04:32:54;;;;;;;10.35;1.80;;;;;;;12.40;62.35;101539.84;5090499;28;20513;-47
2022/09/18 04:35:27;;;;;;;14.73;1.80;;;;;;;12.35;62.19;101528.81;5102756;28;20498;-48
2022/09/18 04:38:01;;;;;;;16.35;3.60;;;;;;;12.41;62.34;101540.66;5100802;28;20042;-47
2022/09/18 04:40:34;;;;;;;18.25;3.63;;;;;;;12.41;62.13;101536.19;5102049;28;20487;-48
2022/09/18 04:43:09;;;;;;;8.15;2.60;;;;;;;12.40;62.41;101539.84;5104372;28;20039;-44
2022/09/18 04:45:44;;;;;;;10.65;1.70;;;;;;;12.34;62.54;101527.16;5102359;28;20046;-45
2022/09/18 04:48:43;;;;;;;8.13;2.22;;;;;;;12.35;62.38;101523.53;5099424;28;20145;-47
2022/09/18 04:51:16;;;;;;;10.57;2.25;;;;;;;12.30;62.27;101517.84;5099928;28;20054;-49
2022/09/18 04:53:50;;;;;;;12.75;1.90;;;;;;;12.32;62.32;101521.16;5106181;28;20447;-46
2022/09/18 04:56:49;;;;;;;6.70;2.03;;;;;;;12.40;62.21;101518.66;5107183;28;20047;-49
2022/09/18 04:59:21;;;;;;;13.35;2.03;;;;;;;12.42;62.26;101506.09;5105027;28;20378;-43
2022/09/18 05:01:54;;;;;;;12.70;3.05;;;;;;;12.44;62.11;101514.72;5102902;28;20082;-49
2022/09/18 05:04:27;;;;;;;6.38;2.30;;;;;;;12.36;62.27;101505.84;5099891;28;20340;-38
2022/09/18 05:07:00;;;;;;;9.88;2.88;;;;;;;12.45;62.07;101521.69;5103876;28;21004;-46
2022/09/18 05:09:35;;;;;;;13.10;2.00;;;;;;;12.34;62.17;101503.31;5106360;28;20339;-47
2022/09/18 05:12:09;;;;;;;6.32;2.08;;;;;;;12.38;62.14;101512.66;5100938;28;20053;-49
2022/09/18 05:14:42;;;;;;;14.80;2.80;;;;;;;12.49;62.21;101526.72;5095169;28;20506;-47
2022/09/18 05:17:15;;;;;;;7.00;1.67;;;;;;;12.48;62.22;101522.38;5103452;28;20065;-47
2022/09/18 05:19:47;;;;;;;6.97;1.88;;;;;;;12.50;62.13;101523.06;5101496;28;20086;-48
2022/09/18 05:22:20;;;;;;;12.88;2.42;;;;;;;12.50;62.25;101512.47;5102222;28;20610;-49
2022/09/18 05:24:54;;;;;;;8.45;3.58;;;;;;;12.48;62.04;101509.13;5099200;28;20136;-47
2022/09/18 05:27:27;;;;;;;10.25;2.17;;;;;;;12.57;62.11;101513.53;5103229;28;20069;-46
2022/09/18 05:29:59;;;;;;;16.25;3.25;;;;;;;12.58;62.27;101520.53;5104646;28;20054;-48
2022/09/18 05:32:32;;;;;;;7.28;1.58;;;;;;;12.58;62.31;101520.53;5110732;28;20100;-45
2022/09/18 05:35:06;;;;;;;9.95;1.75;;;;;;;12.58;62.25;101515.25;5104836;28;20044;-47
2022/09/18 05:37:39;;;;;;;20.25;3.80;;;;;;;12.61;62.24;101523.72;5098495;28;20056;-48
2022/09/18 05:40:36;;;;;;;10.15;3.67;;;;;;;12.63;61.91;101519.09;5122871;28;20375;-48
2022/09/18 05:43:09;;;;;;;13.23;2.92;;;;;;;12.68;61.95;101516.03;5102901;28;20415;-49
2022/09/18 05:45:42;;;;;;;9.50;2.97;;;;;;;12.72;61.76;101525.34;5104221;28;20431;-48
2022/09/18 05:48:15;;;;;;;9.88;3.38;;;;;;;12.74;61.81;101517.25;5104569;28;20162;-51
2022/09/18 05:50:50;;;;;;;9.68;2.45;;;;;;;12.75;61.70;101511.78;5102030;28;20383;-45
2022/09/18 05:53:23;;;;;;;8.25;1.77;;;;;;;12.78;61.65;101511.50;5099781;28;20061;-51
2022/09/18 05:56:00;;;;;;;8.80;1.58;;;;;;;12.79;61.46;101505.22;5112750;28;20112;-50
2022/09/18 05:58:32;;;;;;;10.50;1.73;;;;;;;12.87;61.38;101521.22;5098301;28;20057;-45
2022/09/18 06:01:36;;;;;;;8.85;2.58;;;;;;;12.81;61.32;101495.28;5106926;28;20602;-52
2022/09/18 06:04:10;;;;;;;4.80;1.52;;;;;;;12.92;61.39;101513.66;5096810;28;20049;-46
2022/09/18 06:06:43;;;;;;;2.75;1.23;;;;;;;12.89;61.21;101502.53;5099985;28;20831;-51
2022/09/18 06:09:16;;;;;;;7.07;1.25;;;;;;;12.89;61.23;101502.53;5115938;28;20038;-49
2022/09/18 06:11:50;;;;;;;7.22;2.80;;;;;;;12.95;61.20;101512.53;5105337;28;20050;-52
2022/09/18 06:14:23;;;;;;;7.40;1.38;;;;;;;12.80;61.43;101492.81;5123889;28;20076;-46
2022/09/18 06:16:56;;;;;;;9.05;1.92;;;;;;;12.89;61.28;101515.78;5102915;28;20050;-44
2022/09/18 06:19:28;;;;;;;7.15;1.95;;;;;;;12.82;61.21;101491.69;5100290;28;20065;-48
2022/09/18 06:22:02;;;;;;;1.83;1.20;;;;;;;12.84;61.23;101508.25;5112446;28;20046;-46
2022/09/18 06:24:35;;;;;;;1.55;1.40;;;;;;;12.89;61.26;101498.06;5112195;28;20157;-47
2022/09/18 06:27:09;;;;;;;5.70;1.48;;;;;;;12.88;61.09;101493.75;5103739;28;20120;-47
2022/09/18 06:29:42;;;;;;;5.38;2.28;;;;;;;12.94;61.10;101500.25;5100899;28;20420;-49
2022/09/18 06:32:15;;;;;;;3.70;1.30;;;;;;;12.96;61.12;101500.09;5102919;28;20161;-49
2022/09/18 06:34:48;;;;;;;4.55;1.52;;;;;;;13.08;60.94;101506.88;5099276;28;20054;-46
2022/09/18 06:37:20;;;;;;;2.75;0.98;;;;;;;13.09;60.79;101496.09;5101206;28;20042;-48
2022/09/18 06:39:53;;;;;;;6.68;1.27;;;;;;;13.14;60.70;101499.13;5103912;28;20511;-46
2022/09/18 06:42:27;;;;;;;3.40;1.45;;;;;;;13.18;60.44;101496.19;5106458;28;20062;-49
2022/09/18 06:45:00;;;;;;;2.72;1.20;;;;;;;13.24;59.94;101516.81;5095302;28;20447;-46
2022/09/18 06:47:33;;;;;;;5.68;1.40;;;;;;;13.20;60.26;101515.44;5099864;28;20778;-47
2022/09/18 06:50:07;;;;;;;6.32;1.63;;;;;;;13.21;60.38;101514.47;5097859;28;20419;-48
2022/09/18 06:52:40;;;;;;;4.93;1.25;;;;;;;13.23;60.29;101509.84;5096368;28;20121;-49
2022/09/18 06:55:13;;;;;;;8.50;2.22;;;;;;;13.34;60.13;101510.47;5108584;28;20045;-49
2022/09/18 06:57:56;;;;;;;8.95;1.40;;;;;;;13.43;60.13;101507.91;5093245;28;20054;-51
2022/09/18 07:00:29;;;;;;;3.53;1.10;;;;;;;13.44;60.16;101498.94;5091576;28;20047;-48
2022/09/18 07:03:03;;;;;;;3.85;1.42;;;;;;;13.55;60.12;101519.94;5103313;28;20511;-46
2022/09/18 07:05:41;;;;;;;8.10;1.73;;;;;;;13.55;60.03;101518.13;5123982;28;20484;-46
2022/09/18 07:08:14;;;;;;;7.65;2.10;;;;;;;13.48;60.17;101509.13;5106665;28;20584;-48
2022/09/18 07:10:46;;;;;;;3.75;1.55;;;;;;;13.55;60.24;101504.03;5120201;28;25790;-49
2022/09/18 07:13:20;;;;;;;13.57;1.90;;;;;;;13.48;60.37;101502.97;5099797;28;20047;-50
2022/09/18 07:15:53;;;;;;;5.80;1.35;;;;;;;13.50;60.18;101490.38;5108942;28;20076;-46
2022/09/18 07:18:26;;;;;;;13.85;2.03;;;;;;;13.49;60.07;101504.63;5112380;28;20042;-49
2022/09/18 07:20:59;;;;;;;14.35;2.47;;;;;;;13.58;60.13;101503.72;5102075;28;20046;-48
2022/09/18 07:23:33;;;;;;;11.30;1.85;;;;;;;13.65;59.90;101499.44;5106116;28;20388;-48
2022/09/18 07:26:06;;;;;;;9.60;1.88;;;;;;;13.59;59.97;101485.00;5109669;28;20068;-48
2022/09/18 07:28:40;;;;;;;;;;;;;;;13.77;59.97;101502.69;5108581;28;20453;-49
2022/09/18 07:31:13;;;;;;;;;;;;;;;13.79;59.80;101517.50;5116972;28;19922;-50
2022/09/18 07:33:49;;;;;;;8.82;2.80;;;;;;;13.64;59.62;101497.78;5113903;28;20385;-50
2022/09/18 07:36:22;;;;;;;8.05;2.13;;;;;;;13.65;59.83;101514.56;5111562;28;20039;-48
2022/09/18 07:38:55;;;;;;;;;;;;;;;13.67;59.70;101521.38;5113811;28;20560;-51
2022/09/18 07:41:27;;;;;;;8.23;3.10;;;;;;;13.60;59.61;101507.06;5106722;28;20309;-45
2022/09/18 07:44:02;;;;;;;4.32;1.52;;;;;;;13.56;59.73;101495.06;5113988;28;20419;-46
2022/09/18 07:46:35;;;;;;;9.45;2.38;;;;;;;13.53;59.70;101490.06;5114186;28;20124;-47
2022/09/18 07:49:08;;;;;;;9.55;2.20;;;;;;;13.57;59.71;101494.09;5110953;28;20058;-47
2022/09/18 07:51:40;;;;;;;3.65;2.33;;;;;;;13.69;59.70;101495.53;5115591;28;20069;-46
2022/09/18 07:54:13;;;;;;;6.45;3.38;;;;;;;13.68;59.58;101493.84;5110740;28;20050;-46
2022/09/18 07:56:46;;;;;;;11.13;2.70;;;;;;;13.75;59.48;101478.97;5115734;28;20064;-48
2022/09/18 07:59:19;;;;;;;14.77;4.40;;;;;;;13.90;59.34;101486.38;5108650;28;20046;-48
2022/09/18 08:01:54;;;;;;;14.45;2.15;;;;;;;14.07;59.10;101480.19;5115790;28;20482;-47
2022/09/18 08:04:27;;;;;;;11.85;2.15;;;;;;;14.28;59.00;101491.25;5109967;28;20038;-40
2022/09/18 08:07:02;;;;;;;10.43;1.50;;;;;;;14.39;59.01;101484.00;5100595;28;20043;-49
2022/09/18 08:09:35;;;;;;;10.00;2.97;;;;;;;14.48;59.10;101497.16;5094905;28;20410;-49
2022/09/18 08:12:08;;;;;;;5.82;2.13;;;;;;;14.53;59.00;101483.44;5106701;28;20077;-50
2022/09/18 08:14:43;;;;;;;15.68;3.65;;;;;;;14.62;59.08;101502.91;5084757;28;20051;-46
2022/09/18 08:17:15;;;;;;;6.63;2.25;;;;;;;14.49;59.61;101492.66;5099939;28;20049;-45
2022/09/18 08:19:48;;;;;;;11.57;2.10;;;;;;;14.43;59.68;101498.63;5112761;28;20522;-47
2022/09/18 08:22:21;;;;;;;12.30;2.20;;;;;;;14.27;59.74;101502.84;5111533;28;20393;-47
2022/09/18 08:24:53;;;;;;;5.90;1.85;;;;;;;14.26;59.72;101511.84;5112524;28;20054;-46
2022/09/18 08:27:26;;;;;;;7.20;2.50;;;;;;;14.20;59.70;101506.31;5113684;28;20052;-49
2022/09/18 08:30:00;;;;;;;10.68;2.38;;;;;;;14.15;60.00;101516.56;5102817;28;20234;-48
2022/09/18 08:32:36;;;;;;;6.53;1.98;;;;;;;14.20;59.71;101512.47;5104448;28;20103;-48
2022/09/18 08:35:10;;;;;;;9.13;1.33;;;;;;;14.22;59.65;101502.53;5105573;28;20116;-50
2022/09/18 08:37:51;;;;;;;9.80;2.17;;;;;;;14.43;59.42;101509.25;5109968;28;20077;-50
2022/09/18 08:40:47;;;;;;;13.77;2.90;;;;;;;14.52;59.17;101492.38;5106498;28;20382;-50
2022/09/18 08:43:39;;;;;;;9.63;4.15;;;;;;;14.81;59.15;101505.31;5102715;28;20056;-45
2022/09/18 08:46:17;;;;;;;10.80;2.40;;;;;;;14.84;58.83;101510.31;5100505;28;20743;-48
2022/09/18 08:49:04;;;;;;;4.70;2.15;;;;;;;14.83;58.63;101510.44;5095441;28;20054;-47
2022/09/18 08:51:54;;;;;;;18.05;2.45;;;;;;;14.85;59.39;101513.78;5102149;28;20779;-48
2022/09/18 08:54:43;;;;;;;22.98;3.50;;;;;;;14.75;58.88;101530.72;5103608;28;20115;-37
2022/09/18 08:57:23;;;;;;;10.82;2.28;;;;;;;14.65;58.61;101524.69;5102888;28;20443;-47
2022/09/18 09:00:00;;;;;;;2.95;1.50;;;;;;;14.51;58.51;101512.00;5100366;28;20043;-48
2022/09/18 09:02:47;;;;;;;7.97;3.13;;;;;;;14.51;58.38;101518.13;5099580;28;20046;-51
2022/09/18 09:05:24;;;;;;;6.03;2.40;;;;;;;14.50;58.41;101513.78;5108176;28;20721;-50
2022/09/18 09:08:33;;;;;;;7.63;1.83;;;;;;;14.59;58.23;101520.00;5106216;28;20057;-49
2022/09/18 09:11:15;;;;;;;7.65;1.70;;;;;;;14.58;58.28;101513.00;5104012;28;20418;-49
2022/09/18 09:14:03;;;;;;;7.90;1.75;;;;;;;14.62;58.11;101511.72;5103433;28;20053;-45
2022/09/18 09:16:43;;;;;;;10.80;1.80;;;;;;;14.76;57.94;101516.41;5101865;28;20460;-48
2022/09/18 09:19:30;;;;;;;10.48;2.75;;;;;;;14.92;57.78;101525.44;5108853;28;20061;-47
2022/09/18 09:22:15;;;;;;;4.03;1.70;;;;;;;14.94;57.60;101526.94;5097966;28;20415;-51
2022/09/18 09:25:03;;;;;;;4.63;1.63;;;;;;;14.93;57.60;101548.41;5106913;28;20060;-44
2022/09/18 09:27:41;;;;;;;4.13;1.65;;;;;;;14.80;57.65;101529.38;5103807;28;20069;-50
2022/09/18 09:30:16;;;;;;;7.28;1.83;;;;;;;14.70;57.66;101516.22;5110393;28;20129;-48
2022/09/18 09:32:54;;;;;;;4.35;1.20;;;;;;;14.74;57.65;101518.41;5109242;28;20078;-48
2022/09/18 09:35:32;;;;;;;7.32;1.83;;;;;;;14.86;57.79;101515.44;5108938;28;20048;-50
2022/09/18 09:38:23;;;;;;;7.18;3.78;;;;;;;14.82;57.67;101514.94;5105281;28;20467;-48
2022/09/18 09:40:56;;;;;;;5.22;1.27;;;;;;;15.04;57.53;101512.69;5114136;28;20383;-46
2022/09/18 09:43:37;;;;;;;4.97;1.38;;;;;;;15.03;57.30;101509.19;5107165;28;20379;-50
2022/09/18 09:46:18;;;;;;;11.32;2.55;;;;;;;15.07;57.08;101510.53;5110820;28;20544;-50
2022/09/18 09:48:58;;;;;;;3.15;1.60;;;;;;;15.12;56.82;101497.56;5109404;28;20134;-47
2022/09/18 09:51:43;;;;;;;3.90;1.13;;;;;;;15.28;57.00;101514.56;5103188;28;20069;-51
2022/09/18 09:54:16;;;;;;;14.82;2.65;;;;;;;15.31;56.77;101508.91;5105990;28;20065;-48
2022/09/18 09:56:57;;;;;;;10.27;2.22;;;;;;;15.34;56.85;101513.91;5111377;28;20050;-48
2022/09/18 09:59:51;;;;;;;12.30;1.60;;;;;;;15.23;57.14;101545.13;5101547;28;20461;-48
2022/09/18 10:02:40;;;;;;;7.57;2.63;;;;;;;14.94;57.32;101544.75;5105057;28;20042;-49
2022/09/18 10:05:23;;;;;;;5.72;1.65;;;;;;;14.59;57.73;101541.28;5108127;28;20112;-45
2022/09/18 10:08:06;;;;;;;11.10;1.50;;;;;;;14.22;58.64;101523.78;5106763;28;20065;-48
2022/09/18 10:10:44;;;;;;;3.97;1.30;;;;;;;14.14;58.91;101537.00;5107470;28;20054;-47
2022/09/18 10:13:21;;;;;;;7.05;1.00;;;;;;;14.06;59.13;101523.69;5107077;28;20046;-44
2022/09/18 10:16:01;;;;;;;5.18;1.40;;;;;;;14.14;59.27;101523.72;5110664;28;20050;-49
2022/09/18 10:18:39;;;;;;;7.55;2.33;;;;;;;14.16;59.29;101524.41;5118635;28;20514;-46
2022/09/18 10:21:15;;;;;;;2.25;1.08;;;;;;;14.34;59.12;101520.81;5100945;28;20403;-48
2022/09/18 10:23:56;;;;;;;2.80;1.55;;;;;;;14.45;58.87;101509.94;5112614;28;26237;-47
2022/09/18 10:26:35;;;;;;;8.70;1.30;;;;;;;14.72;58.54;101531.03;5109182;28;20459;-48
2022/09/18 10:29:10;;;;;;;6.00;1.63;;;;;;;14.84;57.91;101526.25;5110669;28;20506;-50
2022/09/18 10:31:52;;;;;;;7.55;2.15;;;;;;;14.99;57.94;101537.13;5112797;28;20038;-47
2022/09/18 10:34:38;;;;;;;4.63;1.23;;;;;;;14.89;58.22;101531.91;5115401;28;20529;-46
2022/09/18 10:37:17;;;;;;;7.75;2.13;;;;;;;14.84;58.19;101514.78;5108426;28;20467;-50
2022/09/18 10:39:53;;;;;;;3.10;0.98;;;;;;;14.96;58.08;101532.94;5107575;28;20391;-48
2022/09/18 10:42:29;;;;;;;3.65;1.27;;;;;;;15.03;58.05;101525.16;5107713;28;20097;-41
2022/09/18 10:45:04;;;;;;;5.85;1.52;;;;;;;15.10;57.96;101517.34;5091988;28;20050;-48
2022/09/18 10:47:38;;;;;;;5.90;1.92;;;;;;;15.20;57.82;101521.53;5104320;28;20129;-50
2022/09/18 10:50:19;;;;;;;3.47;1.75;;;;;;;15.12;58.00;101521.53;5101671;28;20055;-52
2022/09/18 10:52:52;;;;;;;7.47;1.55;;;;;;;14.98;57.90;101540.75;5103334;28;20403;-47
2022/09/18 10:55:28;;;;;;;11.23;2.42;;;;;;;14.80;58.42;101542.69;5100835;28;20106;-49
2022/09/18 10:58:13;;;;;;;7.72;2.92;;;;;;;14.69;58.33;101536.66;5096112;28;20426;-45
2022/09/18 11:00:59;;;;;;;7.80;1.70;;;;;;;14.56;58.46;101530.97;5099831;28;20062;-46
2022/09/18 11:03:42;;;;;;;8.48;2.47;;;;;;;14.53;58.62;101525.97;5107051;28;20049;-47
2022/09/18 11:06:19;;;;;;;;;;;;;;;14.58;58.78;101518.31;5105424;28;20499;-45
2022/09/18 11:08:56;;;;;;;6.15;2.08;;;;;;;14.53;58.85;101521.47;5105478;28;20357;-49
2022/09/18 11:11:33;;;;;;;9.25;2.20;;;;;;;14.60;58.87;101524.31;5103654;28;20042;-40
2022/09/18 11:14:16;;;;;;;6.00;1.55;;;;;;;14.61;58.67;101517.19;5108343;28;20061;-47
2022/09/18 11:16:52;;;;;;;7.90;1.98;;;;;;;14.59;58.75;101509.38;5104553;28;20089;-47
2022/09/18 11:19:29;;;;;;;9.63;2.40;;;;;;;14.65;58.57;101503.44;5081817;28;20392;-48
2022/09/18 11:22:05;;;;;;;14.82;5.68;;;;;;;14.71;58.58;101508.09;5107371;28;20371;-49
2022/09/18 11:24:39;;;;;;;33.70;19.38;;;;;;;14.71;58.55;101508.09;5111460;28;20083;-47
2022/09/18 11:27:22;;;;;;;13.30;4.47;;;;;;;14.80;58.46;101516.09;5096792;28;20050;-50
2022/09/18 11:30:16;;;;;;;13.27;4.07;;;;;;;14.79;58.32;101509.13;5099803;28;20097;-49
2022/09/18 11:32:52;;;;;;;9.50;1.95;;;;;;;14.84;58.47;101501.50;5093955;28;20062;-48
2022/09/18 11:35:28;;;;;;;17.10;3.85;;;;;;;14.97;58.21;101523.97;5094801;28;20043;-47
2022/09/18 11:38:06;;;;;;;20.05;4.10;;;;;;;15.06;58.27;101522.16;5096341;28;20069;-50
2022/09/18 11:40:47;;;;;;;11.02;2.80;;;;;;;14.98;58.17;101514.16;5100292;28;20054;-49
2022/09/18 11:43:29;;;;;;;13.02;2.30;;;;;;;14.99;58.27;101518.50;5094973;28;20051;-45
2022/09/18 11:46:17;;;;;;;15.15;5.68;;;;;;;14.99;58.37;101539.78;5091303;28;20062;-50
2022/09/18 11:48:57;;;;;;;10.93;2.80;;;;;;;14.93;58.38;101537.78;5094591;28;20055;-45
2022/09/18 11:51:40;;;;;;;10.52;2.10;;;;;;;14.76;58.54;101543.00;5092190;28;20051;-46
2022/09/18 11:54:25;;;;;;;12.35;3.30;;;;;;;14.60;58.60;101536.78;5095477;28;20057;-47
2022/09/18 11:57:01;;;;;;;6.78;1.80;;;;;;;14.39;59.11;101540.63;5091415;28;20051;-46
2022/09/18 11:59:42;;;;;;;10.90;1.92;;;;;;;14.31;59.19;101540.59;5098724;28;20506;-51
2022/09/18 12:02:21;;;;;;;9.93;2.33;;;;;;;14.18;59.33;101522.41;5094801;28;20144;-49
2022/09/18 12:05:00;;;;;;;13.45;2.50;;;;;;;14.07;59.46;101520.03;5099104;28;20438;-50
2022/09/18 12:07:40;;;;;;;11.25;1.98;;;;;;;14.15;59.50;101536.00;5111236;28;20046;-50
2022/09/18 12:10:20;;;;;;;4.38;1.52;;;;;;;14.12;59.57;101538.13;5110591;28;20453;-47
2022/09/18 12:13:29;;;;;;;9.40;2.58;;;;;;;14.10;59.68;101535.66;5112187;28;20851;-50
2022/09/18 12:16:15;;;;;;;4.82;1.48;;;;;;;14.13;59.69;101553.09;5108476;28;20077;-48